Time;durP1;ratioP1;P1;durP2;ratioP2;P2;SDS_P1;SDS_P2;PMS_P1;PMS_P2;Temp;Humidity;BMP_temperature;BMP_pressure;BME280_temperature;BME280_humidity;BME280_pressure;Samples;Min_cycle;Max_cycle;Signal;HPM_P1;HPM_P2
2021/06/29 00:00:45;;;;;;;14.02;12.30;;;;;;;;;;5032717;28;20013;-66
2021/06/29 00:03:11;;;;;;;14.25;12.90;;;;;;;;;;5029736;28;20049;-66
2021/06/29 00:05:37;;;;;;;14.02;12.73;;;;;;;;;;5030658;28;20034;-66
2021/06/29 00:08:03;;;;;;;14.15;12.95;;;;;;;;;;5029341;28;20044;-66
2021/06/29 00:10:29;;;;;;;13.63;12.27;;;;;;;;;;5029882;28;20034;-66
2021/06/29 00:12:54;;;;;;;13.20;11.93;;;;;;;;;;5031930;28;20068;-67
2021/06/29 00:15:27;;;;;;;13.60;12.27;;;;;;;;;;5030231;28;20114;-66
2021/06/29 00:17:52;;;;;;;12.95;11.65;;;;;;;;;;5030357;28;20041;-67
2021/06/29 00:20:18;;;;;;;12.30;11.20;;;;;;;;;;5030253;28;20103;-67
2021/06/29 00:22:44;;;;;;;11.68;10.57;;;;;;;;;;5030081;28;20116;-66
2021/06/29 00:25:10;;;;;;;12.98;11.68;;;;;;;;;;5029565;28;20044;-66
2021/06/29 00:27:35;;;;;;;12.90;11.85;;;;;;;;;;5032130;28;20017;-67
2021/06/29 00:30:01;;;;;;;12.55;11.50;;;;;;;;;;5029751;28;20136;-66
2021/06/29 00:32:26;;;;;;;9.55;8.85;;;;;;;;;;5029712;28;20029;-66
2021/06/29 00:34:51;;;;;;;8.13;7.20;;;;;;;;;;5030112;28;20546;-67
2021/06/29 00:37:16;;;;;;;9.05;8.23;;;;;;;;;;5029898;28;20029;-66
2021/06/29 00:39:42;;;;;;;8.00;7.38;;;;;;;;;;5031454;28;20083;-67
2021/06/29 00:42:07;;;;;;;7.38;6.68;;;;;;;;;;5029440;28;20025;-67
2021/06/29 00:44:32;;;;;;;8.20;7.18;;;;;;;;;;5028415;28;20072;-67
2021/06/29 00:46:58;;;;;;;7.63;7.05;;;;;;;;;;5029076;28;20032;-67
2021/06/29 00:49:23;;;;;;;6.88;6.38;;;;;;;;;;5029405;28;20510;-67
2021/06/29 00:51:49;;;;;;;8.23;7.55;;;;;;;;;;5031634;28;20017;-67
2021/06/29 00:54:14;;;;;;;7.30;6.70;;;;;;;;;;5029341;28;20053;-67
2021/06/29 00:56:40;;;;;;;7.25;6.75;;;;;;;;;;5029258;28;20049;-67
2021/06/29 00:59:05;;;;;;;7.15;6.45;;;;;;;;;;5027243;28;20041;-66
2021/06/29 01:01:30;;;;;;;7.57;6.88;;;;;;;;;;5029648;28;20036;-66
2021/06/29 01:03:56;;;;;;;8.40;6.88;;;;;;;;;;5031046;28;20013;-67
2021/06/29 01:06:21;;;;;;;6.90;6.22;;;;;;;;;;5029144;28;20042;-66
2021/06/29 01:08:46;;;;;;;6.47;5.90;;;;;;;;;;5029461;28;20037;-67
2021/06/29 01:11:12;;;;;;;7.57;6.97;;;;;;;;;;5027325;28;20380;-66
2021/06/29 01:13:38;;;;;;;7.28;6.70;;;;;;;;;;5028826;28;20052;-67
2021/06/29 01:16:05;;;;;;;7.03;6.53;;;;;;;;;;5029237;28;20021;-66
2021/06/29 01:18:31;;;;;;;7.13;6.53;;;;;;;;;;5030067;28;20463;-66
2021/06/29 01:20:57;;;;;;;7.55;6.88;;;;;;;;;;5028951;28;20038;-67
2021/06/29 01:23:25;;;;;;;6.72;6.22;;;;;;;;;;5028490;28;20029;-66
2021/06/29 01:26:03;;;;;;;11.45;6.65;;;;;;;;;;5028491;28;20045;-66
2021/06/29 01:28:32;;;;;;;6.40;5.90;;;;;;;;;;5028784;28;20669;-66
2021/06/29 01:31:07;;;;;;;6.65;6.05;;;;;;;;;;5031134;28;20037;-67
2021/06/29 01:33:33;;;;;;;6.28;5.78;;;;;;;;;;5028220;28;20039;-67
2021/06/29 01:35:59;;;;;;;6.45;5.95;;;;;;;;;;5029100;28;20029;-67
2021/06/29 01:38:25;;;;;;;6.35;5.82;;;;;;;;;;5027040;28;20045;-67
2021/06/29 01:40:50;;;;;;;6.78;6.28;;;;;;;;;;5028649;28;20079;-67
2021/06/29 01:43:19;;;;;;;6.28;5.68;;;;;;;;;;5028008;28;20097;-67
2021/06/29 01:45:46;;;;;;;7.10;6.50;;;;;;;;;;5030807;28;20022;-67
2021/06/29 01:48:18;;;;;;;5.97;5.40;;;;;;;;;;5028668;28;20038;-67
2021/06/29 01:50:44;;;;;;;6.50;5.95;;;;;;;;;;5028594;28;20076;-66
2021/06/29 01:53:09;;;;;;;6.40;5.90;;;;;;;;;;5028295;28;20053;-67
2021/06/29 01:55:34;;;;;;;6.90;5.03;;;;;;;;;;5026779;28;20029;-67
2021/06/29 01:58:00;;;;;;;6.20;5.60;;;;;;;;;;5028131;28;20031;-67
2021/06/29 02:00:25;;;;;;;5.60;5.10;;;;;;;;;;5030498;28;20021;-67
2021/06/29 02:02:50;;;;;;;5.50;5.00;;;;;;;;;;5028249;28;20040;-68
2021/06/29 02:05:16;;;;;;;6.13;5.10;;;;;;;;;;5026901;28;20037;-67
2021/06/29 02:07:41;;;;;;;5.18;4.88;;;;;;;;;;5028130;28;20037;-68
2021/06/29 02:10:07;;;;;;;5.78;5.38;;;;;;;;;;5028326;28;20467;-68
2021/06/29 02:12:33;;;;;;;5.28;4.93;;;;;;;;;;5029371;28;20025;-68
2021/06/29 02:14:58;;;;;;;6.85;5.10;;;;;;;;;;5027707;28;20552;-68
2021/06/29 02:17:23;;;;;;;5.75;5.35;;;;;;;;;;5028112;28;20037;-69
2021/06/29 02:19:49;;;;;;;5.70;5.30;;;;;;;;;;5028088;28;20064;-68
2021/06/29 02:22:14;;;;;;;8.25;4.85;;;;;;;;;;5027641;28;20061;-68
2021/06/29 02:24:39;;;;;;;6.68;4.85;;;;;;;;;;5030300;28;20368;-68
2021/06/29 02:27:05;;;;;;;5.28;4.88;;;;;;;;;;5027883;28;20087;-68
2021/06/29 02:29:30;;;;;;;5.32;4.90;;;;;;;;;;5025914;28;20052;-68
2021/06/29 02:31:55;;;;;;;5.30;4.88;;;;;;;;;;5028367;28;20080;-68
2021/06/29 02:34:20;;;;;;;4.82;4.53;;;;;;;;;;5026761;28;20025;-68
2021/06/29 02:36:46;;;;;;;5.68;5.28;;;;;;;;;;5029601;28;20096;-68
2021/06/29 02:39:11;;;;;;;5.20;4.77;;;;;;;;;;5027356;28;20037;-68
2021/06/29 02:41:36;;;;;;;6.00;4.40;;;;;;;;;;5028073;28;20905;-68
2021/06/29 02:44:01;;;;;;;5.78;5.20;;;;;;;;;;5027617;28;20041;-68
2021/06/29 02:46:27;;;;;;;5.03;4.70;;;;;;;;;;5028285;28;20033;-68
2021/06/29 02:48:56;;;;;;;4.72;4.32;;;;;;;;;;5028841;28;20463;-67
2021/06/29 02:51:22;;;;;;;4.97;4.57;;;;;;;;;;5026868;28;20491;-68
2021/06/29 02:53:47;;;;;;;4.72;4.32;;;;;;;;;;5027754;28;20041;-68
2021/06/29 02:58:56;;;;;;;5.60;5.10;;;;;;;;;;5027845;28;20514;-68
2021/06/29 03:01:21;;;;;;;5.15;4.70;;;;;;;;;;5027734;28;20105;-67
2021/06/29 03:03:47;;;;;;;4.75;4.25;;;;;;;;;;5029625;28;20379;-68
2021/06/29 03:06:12;;;;;;;5.07;4.60;;;;;;;;;;5027012;28;20025;-68
2021/06/29 03:08:37;;;;;;;8.68;4.90;;;;;;;;;;5028078;28;20041;-68
2021/06/29 03:11:03;;;;;;;4.93;4.53;;;;;;;;;;5026200;28;20180;-68
2021/06/29 03:13:28;;;;;;;5.05;4.65;;;;;;;;;;5026295;28;20095;-68
2021/06/29 03:15:53;;;;;;;5.57;5.18;;;;;;;;;;5028634;28;20067;-67
2021/06/29 03:18:23;;;;;;;4.95;4.65;;;;;;;;;;5027843;28;20034;-67
2021/06/29 03:20:48;;;;;;;5.15;4.75;;;;;;;;;;5027735;28;20040;-67
2021/06/29 03:23:13;;;;;;;6.60;5.13;;;;;;;;;;5027623;28;20030;-68
2021/06/29 03:25:38;;;;;;;6.65;4.65;;;;;;;;;;5031130;28;20033;-68
2021/06/29 03:28:04;;;;;;;5.18;4.80;;;;;;;;;;5031093;28;20057;-68
2021/06/29 03:30:29;;;;;;;5.35;4.95;;;;;;;;;;5033474;28;20065;-68
2021/06/29 03:32:54;;;;;;;5.03;4.72;;;;;;;;;;5031084;28;20022;-68
2021/06/29 03:35:19;;;;;;;5.15;4.75;;;;;;;;;;5031606;28;20037;-67
2021/06/29 03:37:45;;;;;;;5.75;5.25;;;;;;;;;;5031511;28;20042;-68
2021/06/29 03:40:10;;;;;;;4.75;4.45;;;;;;;;;;5030301;28;20018;-67
2021/06/29 03:42:35;;;;;;;5.43;4.93;;;;;;;;;;5031309;28;20061;-67
2021/06/29 03:45:00;;;;;;;5.40;4.82;;;;;;;;;;5031332;28;20394;-67
2021/06/29 03:47:26;;;;;;;5.13;4.68;;;;;;;;;;5031054;28;20037;-68
2021/06/29 03:49:51;;;;;;;6.13;4.95;;;;;;;;;;5031101;28;20041;-67
2021/06/29 03:52:16;;;;;;;5.70;4.53;;;;;;;;;;5030590;28;20017;-68
2021/06/29 03:54:41;;;;;;;4.60;4.30;;;;;;;;;;5032940;28;20045;-68
2021/06/29 03:57:07;;;;;;;5.15;4.15;;;;;;;;;;5030496;28;20055;-68
2021/06/29 03:59:32;;;;;;;5.72;4.70;;;;;;;;;;5030792;28;20407;-68
2021/06/29 04:01:57;;;;;;;5.55;5.25;;;;;;;;;;5030822;28;20025;-67
2021/06/29 04:04:23;;;;;;;5.07;4.68;;;;;;;;;;5030229;28;20033;-68
2021/06/29 04:06:48;;;;;;;4.40;4.10;;;;;;;;;;5031331;28;20017;-67
2021/06/29 04:09:13;;;;;;;5.15;4.65;;;;;;;;;;5029154;28;20291;-67
2021/06/29 04:11:38;;;;;;;4.28;4.03;;;;;;;;;;5028963;28;20045;-67
2021/06/29 04:14:04;;;;;;;4.38;4.07;;;;;;;;;;5029857;28;20041;-67
2021/06/29 04:16:29;;;;;;;4.70;4.22;;;;;;;;;;5046046;28;20033;-68
2021/06/29 04:18:54;;;;;;;5.43;4.10;;;;;;;;;;5031320;28;20021;-67
2021/06/29 04:21:20;;;;;;;4.20;3.80;;;;;;;;;;5030306;28;20103;-67
2021/06/29 04:23:45;;;;;;;4.60;3.58;;;;;;;;;;5030090;28;20069;-68
2021/06/29 04:26:16;;;;;;;4.22;3.88;;;;;;;;;;5030168;28;20067;-67
2021/06/29 04:28:42;;;;;;;9.52;3.75;;;;;;;;;;5029873;28;20088;-67
2021/06/29 04:31:07;;;;;;;3.53;3.23;;;;;;;;;;5029071;28;20029;-67
2021/06/29 04:33:32;;;;;;;5.93;3.67;;;;;;;;;;5030424;28;20778;-68
2021/06/29 04:35:57;;;;;;;2.75;2.60;;;;;;;;;;5030212;28;20092;-68
2021/06/29 04:38:23;;;;;;;2.83;2.60;;;;;;;;;;5029744;28;20068;-67
2021/06/29 04:40:48;;;;;;;2.97;2.73;;;;;;;;;;5028792;28;20091;-67
2021/06/29 04:43:13;;;;;;;3.60;2.30;;;;;;;;;;5028927;28;20333;-68
2021/06/29 04:45:38;;;;;;;2.00;1.90;;;;;;;;;;5030468;28;20599;-67
2021/06/29 04:48:04;;;;;;;2.65;2.50;;;;;;;;;;5029907;28;20033;-67
2021/06/29 04:50:29;;;;;;;3.60;2.20;;;;;;;;;;5029786;28;20065;-67
2021/06/29 04:52:54;;;;;;;2.53;2.33;;;;;;;;;;5029238;28;20501;-67
2021/06/29 04:55:20;;;;;;;2.40;2.28;;;;;;;;;;5029531;28;20020;-67
2021/06/29 04:57:45;;;;;;;3.17;2.38;;;;;;;;;;5031083;28;20028;-67
2021/06/29 05:00:15;;;;;;;2.97;2.78;;;;;;;;;;5027897;28;20038;-67
2021/06/29 05:02:40;;;;;;;3.42;2.63;;;;;;;;;;5029135;28;20033;-67
2021/06/29 05:05:06;;;;;;;4.05;2.60;;;;;;;;;;5029443;28;20388;-68
2021/06/29 05:07:32;;;;;;;3.75;3.45;;;;;;;;;;5029089;28;20072;-67
2021/06/29 05:09:57;;;;;;;4.32;3.22;;;;;;;;;;5029969;28;20037;-67
2021/06/29 05:12:22;;;;;;;3.90;3.13;;;;;;;;;;5028289;28;20116;-67
2021/06/29 05:14:47;;;;;;;2.90;2.60;;;;;;;;;;5028978;28;20372;-67
2021/06/29 05:17:13;;;;;;;5.22;2.92;;;;;;;;;;5029251;28;20300;-67
2021/06/29 05:19:39;;;;;;;4.27;2.70;;;;;;;;;;5027965;28;20442;-67
2021/06/29 05:22:05;;;;;;;3.60;2.90;;;;;;;;;;5028114;28;20340;-67
2021/06/29 05:24:30;;;;;;;2.97;2.65;;;;;;;;;;5030952;28;20112;-67
2021/06/29 05:26:55;;;;;;;5.07;2.90;;;;;;;;;;5028774;28;20041;-67
2021/06/29 05:29:20;;;;;;;3.15;2.70;;;;;;;;;;5028715;28;20430;-67
2021/06/29 05:32:05;;;;;;;3.22;2.70;;;;;;;;;;5027961;28;20167;-67
2021/06/29 05:34:30;;;;;;;2.92;2.50;;;;;;;;;;5027344;28;20112;-66
2021/06/29 05:36:56;;;;;;;4.97;2.60;;;;;;;;;;5031103;28;20109;-67
2021/06/29 05:39:21;;;;;;;2.78;2.58;;;;;;;;;;5029111;28;20290;-67
2021/06/29 05:41:46;;;;;;;5.53;2.85;;;;;;;;;;5028593;28;20044;-67
2021/06/29 05:44:11;;;;;;;3.55;2.90;;;;;;;;;;5026867;28;20068;-66
2021/06/29 05:46:37;;;;;;;4.22;2.67;;;;;;;;;;5028471;28;20038;-67
2021/06/29 05:49:04;;;;;;;4.13;2.72;;;;;;;;;;5030461;28;20021;-68
2021/06/29 05:51:29;;;;;;;4.75;3.10;;;;;;;;;;5029691;28;20038;-67
2021/06/29 05:53:55;;;;;;;6.25;3.88;;;;;;;;;;5026795;28;20091;-66
2021/06/29 05:56:20;;;;;;;4.50;3.58;;;;;;;;;;5026992;28;20072;-66
2021/06/29 05:58:45;;;;;;;4.03;3.53;;;;;;;;;;5043399;28;20040;-68
2021/06/29 06:01:10;;;;;;;6.93;3.30;;;;;;;;;;5027180;28;20690;-66
2021/06/29 06:03:36;;;;;;;3.33;3.03;;;;;;;;;;5029983;28;20617;-67
2021/06/29 06:06:01;;;;;;;2.88;2.67;;;;;;;;;;5027971;28;20535;-67
2021/06/29 06:08:27;;;;;;;4.80;2.45;;;;;;;;;;5028100;28;20438;-66
2021/06/29 06:10:54;;;;;;;2.90;2.70;;;;;;;;;;5028561;28;20049;-67
2021/06/29 06:13:19;;;;;;;3.20;2.47;;;;;;;;;;5027131;28;20017;-67
2021/06/29 06:15:44;;;;;;;2.63;2.42;;;;;;;;;;5030383;28;20033;-67
2021/06/29 06:18:09;;;;;;;2.83;2.10;;;;;;;;;;5028294;28;20025;-67
2021/06/29 06:20:35;;;;;;;2.55;2.38;;;;;;;;;;5026979;28;20042;-66
2021/06/29 06:23:00;;;;;;;2.35;2.25;;;;;;;;;;5026161;28;20045;-66
2021/06/29 06:25:25;;;;;;;2.70;2.50;;;;;;;;;;5026802;28;20030;-66
2021/06/29 06:27:51;;;;;;;2.67;2.47;;;;;;;;;;5028084;28;20056;-66
2021/06/29 06:30:18;;;;;;;2.85;2.65;;;;;;;;;;5028041;28;20446;-67
2021/06/29 06:32:43;;;;;;;3.10;2.88;;;;;;;;;;5025974;28;20045;-66
2021/06/29 06:35:09;;;;;;;2.70;2.50;;;;;;;;;;5028036;28;20656;-66
2021/06/29 06:37:34;;;;;;;2.97;2.78;;;;;;;;;;5026631;28;20060;-66
2021/06/29 06:39:59;;;;;;;5.50;2.73;;;;;;;;;;5029908;28;20032;-66
2021/06/29 06:42:24;;;;;;;3.35;2.40;;;;;;;;;;5027291;28;20748;-67
2021/06/29 06:44:49;;;;;;;2.40;2.30;;;;;;;;;;5027914;28;20210;-66
2021/06/29 06:47:15;;;;;;;2.30;2.10;;;;;;;;;;5027902;28;20322;-66
2021/06/29 06:49:40;;;;;;;2.63;2.20;;;;;;;;;;5027977;28;20326;-66
2021/06/29 06:52:06;;;;;;;2.10;1.90;;;;;;;;;;5027853;28;20808;-67
2021/06/29 06:54:31;;;;;;;2.13;1.90;;;;;;;;;;5029583;28;20017;-66
2021/06/29 06:56:56;;;;;;;3.53;2.20;;;;;;;;;;5027317;28;20025;-66
2021/06/29 06:59:21;;;;;;;2.73;2.00;;;;;;;;;;5031085;28;20113;-66
2021/06/29 07:01:47;;;;;;;2.50;2.15;;;;;;;;;;5031600;28;20268;-66
2021/06/29 07:04:12;;;;;;;2.15;2.05;;;;;;;;;;5031244;28;20022;-68
2021/06/29 07:06:37;;;;;;;2.88;2.20;;;;;;;;;;5033682;28;20014;-66
2021/06/29 07:09:03;;;;;;;2.53;1.90;;;;;;;;;;5031641;28;20026;-66
2021/06/29 07:11:28;;;;;;;1.50;1.40;;;;;;;;;;5031668;28;20065;-66
2021/06/29 07:13:53;;;;;;;2.40;1.60;;;;;;;;;;5030498;28;20121;-66
2021/06/29 07:16:19;;;;;;;3.27;2.00;;;;;;;;;;5031357;28;20271;-66
2021/06/29 07:18:44;;;;;;;1.98;1.80;;;;;;;;;;5032048;28;20613;-67
2021/06/29 07:21:09;;;;;;;4.37;1.83;;;;;;;;;;5031467;28;20456;-66
2021/06/29 07:23:34;;;;;;;3.80;1.80;;;;;;;;;;5030917;28;20817;-66
2021/06/29 07:26:00;;;;;;;2.87;1.67;;;;;;;;;;5029892;28;20121;-66
2021/06/29 07:28:25;;;;;;;6.90;1.80;;;;;;;;;;5029367;28;20269;-66
2021/06/29 07:30:50;;;;;;;1.50;1.40;;;;;;;;;;5031811;28;20284;-67
2021/06/29 07:33:15;;;;;;;2.43;1.80;;;;;;;;;;5030903;28;20805;-66
2021/06/29 07:35:41;;;;;;;2.65;1.30;;;;;;;;;;5030990;28;20801;-66
2021/06/29 07:38:07;;;;;;;2.70;1.55;;;;;;;;;;5029491;28;20110;-66
2021/06/29 07:40:33;;;;;;;1.50;1.30;;;;;;;;;;5030905;28;20033;-66
2021/06/29 07:42:58;;;;;;;2.83;1.25;;;;;;;;;;5030690;28;20033;-66
2021/06/29 07:45:26;;;;;;;2.42;1.20;;;;;;;;;;5030823;28;20383;-66
2021/06/29 07:47:51;;;;;;;1.70;1.10;;;;;;;;;;5031097;28;20140;-66
2021/06/29 07:50:17;;;;;;;1.73;1.27;;;;;;;;;;5030819;28;20128;-66
2021/06/29 07:52:42;;;;;;;2.10;1.90;;;;;;;;;;5028828;28;20513;-67
2021/06/29 07:55:07;;;;;;;1.23;1.10;;;;;;;;;;5030909;28;20785;-67
2021/06/29 07:57:33;;;;;;;2.63;0.90;;;;;;;;;;5032259;28;20275;-66
2021/06/29 07:59:58;;;;;;;1.60;1.23;;;;;;;;;;5028947;28;20033;-66
2021/06/29 08:02:23;;;;;;;1.50;1.27;;;;;;;;;;5030152;28;20595;-66
2021/06/29 08:04:49;;;;;;;1.35;1.10;;;;;;;;;;5030173;28;20216;-66
2021/06/29 08:07:14;;;;;;;2.40;1.50;;;;;;;;;;5030635;28;20394;-66
2021/06/29 08:09:40;;;;;;;2.60;1.10;;;;;;;;;;5031737;28;20537;-67
2021/06/29 08:12:05;;;;;;;1.00;1.00;;;;;;;;;;5029890;28;20699;-66
2021/06/29 08:14:31;;;;;;;3.78;1.70;;;;;;;;;;5030043;28;20554;-66
2021/06/29 08:16:56;;;;;;;5.22;0.95;;;;;;;;;;5029968;28;20048;-66
2021/06/29 08:19:21;;;;;;;2.08;1.00;;;;;;;;;;5029918;28;20049;-66
2021/06/29 08:21:47;;;;;;;1.50;1.40;;;;;;;;;;5032234;28;20076;-66
2021/06/29 08:24:12;;;;;;;1.27;1.17;;;;;;;;;;5029581;28;20064;-66
2021/06/29 08:26:37;;;;;;;1.75;1.30;;;;;;;;;;5030027;28;20483;-66
2021/06/29 08:29:03;;;;;;;1.48;1.10;;;;;;;;;;5029414;28;20494;-66
2021/06/29 08:31:28;;;;;;;1.40;1.30;;;;;;;;;;5027223;28;20033;-66
2021/06/29 08:33:54;;;;;;;1.98;0.98;;;;;;;;;;5031622;28;20525;-66
2021/06/29 08:36:19;;;;;;;2.15;1.20;;;;;;;;;;5029930;28;20037;-66
2021/06/29 08:38:45;;;;;;;1.50;1.30;;;;;;;;;;5029646;28;20045;-66
2021/06/29 08:41:11;;;;;;;2.75;1.40;;;;;;;;;;5029838;28;20032;-66
2021/06/29 08:43:37;;;;;;;1.25;1.15;;;;;;;;;;5027209;28;20415;-66
2021/06/29 08:46:02;;;;;;;1.83;1.13;;;;;;;;;;5031649;28;20028;-66
2021/06/29 08:48:27;;;;;;;1.10;1.00;;;;;;;;;;5028775;28;20051;-66
2021/06/29 08:50:52;;;;;;;0.90;0.88;;;;;;;;;;5029427;28;20045;-67
2021/06/29 08:53:18;;;;;;;1.20;0.85;;;;;;;;;;5029153;28;20033;-66
2021/06/29 08:55:43;;;;;;;1.50;1.40;;;;;;;;;;5028780;28;20037;-66
2021/06/29 08:58:09;;;;;;;2.35;1.00;;;;;;;;;;5027616;28;20021;-66
2021/06/29 09:00:34;;;;;;;1.42;0.73;;;;;;;;;;5031269;28;20009;-66
2021/06/29 09:03:00;;;;;;;1.17;1.08;;;;;;;;;;5028412;28;20132;-66
2021/06/29 09:05:26;;;;;;;1.63;0.80;;;;;;;;;;5027726;28;20116;-66
2021/06/29 09:07:59;;;;;;;1.35;1.10;;;;;;;;;;5029180;28;20026;-67
2021/06/29 09:10:25;;;;;;;2.13;1.02;;;;;;;;;;5028982;28;20167;-66
2021/06/29 09:12:51;;;;;;;0.85;0.70;;;;;;;;;;5030427;28;20100;-66
2021/06/29 09:15:24;;;;;;;1.05;0.90;;;;;;;;;;5027758;28;20379;-66
2021/06/29 09:17:54;;;;;;;1.73;1.00;;;;;;;;;;5029101;28;20498;-66
2021/06/29 09:20:27;;;;;;;2.53;1.08;;;;;;;;;;5028255;28;20041;-66
2021/06/29 09:22:53;;;;;;;1.35;1.25;;;;;;;;;;5025982;28;20147;-66
2021/06/29 09:25:26;;;;;;;2.33;1.27;;;;;;;;;;5028685;28;20017;-66
2021/06/29 09:27:52;;;;;;;1.00;0.90;;;;;;;;;;5030708;28;20464;-66
2021/06/29 09:30:26;;;;;;;0.98;0.80;;;;;;;;;;5027334;28;20048;-66
2021/06/29 09:32:51;;;;;;;1.15;1.05;;;;;;;;;;5026909;28;20030;-66
2021/06/29 09:35:17;;;;;;;1.60;0.90;;;;;;;;;;5026893;28;20034;-65
2021/06/29 09:37:45;;;;;;;2.33;1.10;;;;;;;;;;5028546;28;20064;-66
2021/06/29 09:40:15;;;;;;;2.25;0.98;;;;;;;;;;5028109;28;20544;-66
2021/06/29 09:42:41;;;;;;;2.28;0.80;;;;;;;;;;5030107;28;20108;-66
2021/06/29 09:45:26;;;;;;;2.28;0.82;;;;;;;;;;5026445;28;20120;-66
2021/06/29 09:47:52;;;;;;;1.20;0.60;;;;;;;;;;5026407;28;20437;-66
2021/06/29 09:50:36;;;;;;;0.90;0.90;;;;;;;;;;5028504;28;20126;-67
2021/06/29 09:53:17;;;;;;;0.80;0.80;;;;;;;;;;5028061;28;20466;-66
2021/06/29 09:55:47;;;;;;;0.80;0.80;;;;;;;;;;5028332;28;20030;-66
2021/06/29 09:58:14;;;;;;;1.50;0.70;;;;;;;;;;5028241;28;20232;-66
2021/06/29 10:00:48;;;;;;;0.50;0.50;;;;;;;;;;5030568;28;20074;-67
2021/06/29 10:03:22;;;;;;;1.88;0.80;;;;;;;;;;5027956;28;20022;-66
2021/06/29 10:05:48;;;;;;;0.80;0.65;;;;;;;;;;5028003;28;20090;-66
2021/06/29 10:08:27;;;;;;;1.20;0.88;;;;;;;;;;5027876;28;20045;-67
2021/06/29 10:11:06;;;;;;;0.82;0.80;;;;;;;;;;5026520;28;20067;-69
2021/06/29 10:14:00;;;;;;;1.05;0.70;;;;;;;;;;5027175;28;20083;-67
2021/06/29 10:16:28;;;;;;;0.75;0.60;;;;;;;;;;5023105;28;21692;-67
2021/06/29 10:19:02;;;;;;;0.70;0.70;;;;;;;;;;5030079;28;20382;-67
2021/06/29 10:21:28;;;;;;;0.65;0.65;;;;;;;;;;5027823;28;20037;-67
2021/06/29 10:23:58;;;;;;;1.30;0.68;;;;;;;;;;5027289;28;20033;-67
2021/06/29 10:26:24;;;;;;;0.88;0.88;;;;;;;;;;5027285;28;20045;-68
2021/06/29 10:28:50;;;;;;;2.00;0.82;;;;;;;;;;5027680;28;20041;-67
2021/06/29 10:31:20;;;;;;;0.77;0.77;;;;;;;;;;5026015;28;20387;-67
2021/06/29 10:33:46;;;;;;;2.55;0.80;;;;;;;;;;5036190;28;20072;-67
2021/06/29 10:36:12;;;;;;;0.93;0.80;;;;;;;;;;5033962;28;20049;-67
2021/06/29 10:38:37;;;;;;;1.40;0.80;;;;;;;;;;5033788;28;20087;-66
2021/06/29 10:41:03;;;;;;;3.00;1.10;;;;;;;;;;5034392;28;20037;-66
2021/06/29 10:43:28;;;;;;;0.88;0.80;;;;;;;;;;5033367;28;20030;-66
2021/06/29 10:45:54;;;;;;;1.55;0.80;;;;;;;;;;5036197;28;20060;-67
2021/06/29 10:48:26;;;;;;;1.42;0.70;;;;;;;;;;5034321;28;20250;-67
2021/06/29 10:50:53;;;;;;;0.60;0.60;;;;;;;;;;5034183;28;20514;-67
2021/06/29 10:53:35;;;;;;;2.47;0.70;;;;;;;;;;5033953;28;20303;-67
2021/06/29 10:56:00;;;;;;;;;;;;;;;;;;5034233;28;20021;-66
2021/06/29 10:58:35;;;;;;;1.50;0.90;;;;;;;;;;5031160;28;19999;-67
2021/06/29 11:01:18;;;;;;;0.90;0.90;;;;;;;;;;5035936;28;20013;-67
2021/06/29 11:03:44;;;;;;;1.80;0.70;;;;;;;;;;5034508;28;20045;-68
2021/06/29 11:06:10;;;;;;;1.00;1.00;;;;;;;;;;5033702;28;20032;-68
2021/06/29 11:08:46;;;;;;;1.52;1.10;;;;;;;;;;5033104;28;20037;-67
2021/06/29 11:11:11;;;;;;;1.48;1.27;;;;;;;;;;5033713;28;20037;-69
2021/06/29 11:13:41;;;;;;;1.10;1.00;;;;;;;;;;5033044;28;20448;-68
2021/06/29 11:16:07;;;;;;;2.40;1.00;;;;;;;;;;5035111;28;20079;-67
2021/06/29 11:18:41;;;;;;;0.98;0.98;;;;;;;;;;5035078;28;20439;-67
2021/06/29 11:21:08;;;;;;;1.17;1.08;;;;;;;;;;5033944;28;20033;-68
2021/06/29 11:23:34;;;;;;;1.35;1.25;;;;;;;;;;5033481;28;20069;-68
2021/06/29 11:26:00;;;;;;;1.40;1.10;;;;;;;;;;5033489;28;20037;-67
2021/06/29 11:28:35;;;;;;;1.00;1.00;;;;;;;;;;5032162;28;20430;-68
2021/06/29 11:31:11;;;;;;;2.00;1.02;;;;;;;;;;5035809;28;20029;-69
2021/06/29 11:33:47;;;;;;;0.90;0.90;;;;;;;;;;5032731;28;20044;-69
2021/06/29 11:36:29;;;;;;;1.23;1.08;;;;;;;;;;5033118;28;20111;-69
2021/06/29 11:38:56;;;;;;;1.40;1.30;;;;;;;;;;5047572;22;20041;-67
2021/06/29 11:41:24;;;;;;;1.33;1.02;;;;;;;;;;5032688;28;20095;-67
2021/06/29 11:43:50;;;;;;;3.45;1.25;;;;;;;;;;5030996;28;20042;-67
2021/06/29 11:46:34;;;;;;;1.00;1.00;;;;;;;;;;5029630;28;20017;-67
2021/06/29 11:49:08;;;;;;;1.00;1.00;;;;;;;;;;5032954;28;20029;-68
2021/06/29 11:51:49;;;;;;;1.20;1.02;;;;;;;;;;5029991;28;20129;-67
2021/06/29 11:54:38;;;;;;;1.50;1.25;;;;;;;;;;5030336;28;20535;-69
2021/06/29 11:57:14;;;;;;;1.00;1.00;;;;;;;;;;5026075;28;20091;-68
2021/06/29 11:59:39;;;;;;;1.00;0.90;;;;;;;;;;5030341;28;20638;-69
2021/06/29 12:02:05;;;;;;;1.85;0.88;;;;;;;;;;5030446;28;20091;-69
2021/06/29 12:04:31;;;;;;;1.92;1.00;;;;;;;;;;5030362;28;20480;-69
2021/06/29 12:07:01;;;;;;;0.80;0.80;;;;;;;;;;5032530;28;20027;-69
2021/06/29 12:09:30;;;;;;;0.80;0.80;;;;;;;;;;5030228;28;20067;-66
2021/06/29 12:12:15;;;;;;;2.17;0.82;;;;;;;;;;5030660;28;20082;-68
2021/06/29 12:14:40;;;;;;;0.93;0.82;;;;;;;;;;5028500;28;20037;-68
2021/06/29 12:17:05;;;;;;;0.80;0.80;;;;;;;;;;5030158;28;20033;-68
2021/06/29 12:19:30;;;;;;;1.10;0.90;;;;;;;;;;5030335;28;20268;-68
2021/06/29 12:21:56;;;;;;;0.97;0.97;;;;;;;;;;5032161;28;20055;-69
2021/06/29 12:24:21;;;;;;;1.35;1.10;;;;;;;;;;5029980;28;20269;-70
2021/06/29 12:26:46;;;;;;;1.30;1.13;;;;;;;;;;5029972;28;20034;-68
2021/06/29 12:29:11;;;;;;;1.60;1.10;;;;;;;;;;5029916;28;20100;-68
2021/06/29 12:31:37;;;;;;;1.47;1.00;;;;;;;;;;5030124;28;20268;-69
2021/06/29 12:34:02;;;;;;;0.90;0.90;;;;;;;;;;5047222;28;20272;-68
2021/06/29 12:36:27;;;;;;;1.20;1.10;;;;;;;;;;5030094;28;20315;-68
2021/06/29 12:38:56;;;;;;;2.47;1.10;;;;;;;;;;5029609;28;20041;-68
2021/06/29 12:41:24;;;;;;;1.60;1.23;;;;;;;;;;5029914;28;20042;-69
2021/06/29 12:43:53;;;;;;;1.13;1.02;;;;;;;;;;5029152;28;20454;-69
2021/06/29 12:46:39;;;;;;;1.10;1.10;;;;;;;;;;5029705;28;20013;-69
2021/06/29 12:49:09;;;;;;;1.33;1.13;;;;;;;;;;5031829;28;20063;-70
2021/06/29 12:51:36;;;;;;;1.45;1.35;;;;;;;;;;5030008;28;20430;-69
2021/06/29 12:54:01;;;;;;;1.30;1.10;;;;;;;;;;5029540;28;20494;-69
2021/06/29 12:56:31;;;;;;;1.23;1.00;;;;;;;;;;5027202;28;20029;-68
2021/06/29 12:58:57;;;;;;;1.30;1.20;;;;;;;;;;5029253;28;20086;-69
2021/06/29 13:01:23;;;;;;;1.08;1.08;;;;;;;;;;5029446;28;20017;-69
2021/06/29 13:03:51;;;;;;;1.60;1.10;;;;;;;;;;5031356;28;20455;-68
2021/06/29 13:06:16;;;;;;;5.20;1.40;;;;;;;;;;5029546;28;20037;-69
2021/06/29 13:08:42;;;;;;;2.23;1.20;;;;;;;;;;5029383;28;20048;-69
2021/06/29 13:11:08;;;;;;;3.35;1.00;;;;;;;;;;5029207;28;20295;-69
2021/06/29 13:13:33;;;;;;;2.70;1.15;;;;;;;;;;5028788;28;20047;-69
2021/06/29 13:15:58;;;;;;;2.57;1.10;;;;;;;;;;5031264;28;20421;-70
2021/06/29 13:18:30;;;;;;;1.90;1.05;;;;;;;;;;5029373;28;20766;-70
2021/06/29 13:20:56;;;;;;;2.15;1.15;;;;;;;;;;5029696;28;20030;-68
2021/06/29 13:23:21;;;;;;;2.50;1.20;;;;;;;;;;5029068;28;20502;-69
2021/06/29 13:25:46;;;;;;;1.20;1.10;;;;;;;;;;5028985;28;20754;-69
2021/06/29 13:28:13;;;;;;;1.30;1.17;;;;;;;;;;5028983;28;20025;-70
2021/06/29 13:30:39;;;;;;;2.55;1.55;;;;;;;;;;5030944;28;20408;-69
2021/06/29 13:33:05;;;;;;;1.25;1.15;;;;;;;;;;5027477;28;20493;-68
2021/06/29 13:35:30;;;;;;;2.15;1.10;;;;;;;;;;5029174;28;20030;-69
2021/06/29 13:37:59;;;;;;;2.23;1.30;;;;;;;;;;5028679;28;20065;-69
2021/06/29 13:40:32;;;;;;;1.25;1.02;;;;;;;;;;5029112;28;20259;-69
2021/06/29 13:43:09;;;;;;;1.40;1.20;;;;;;;;;;5030425;28;20045;-70
2021/06/29 13:45:36;;;;;;;1.55;1.20;;;;;;;;;;5028952;28;20033;-68
2021/06/29 13:48:01;;;;;;;1.40;1.30;;;;;;;;;;5028964;28;20045;-69
2021/06/29 13:50:34;;;;;;;1.33;1.20;;;;;;;;;;5028506;28;20056;-69
2021/06/29 13:53:00;;;;;;;2.50;1.50;;;;;;;;;;5028183;28;20040;-69
2021/06/29 13:55:26;;;;;;;1.58;1.38;;;;;;;;;;5028621;28;20017;-68
2021/06/29 13:57:52;;;;;;;2.75;1.40;;;;;;;;;;5030533;28;20025;-69
2021/06/29 14:00:23;;;;;;;2.55;1.60;;;;;;;;;;5028208;28;20124;-68
2021/06/29 14:03:05;;;;;;;1.92;1.75;;;;;;;;;;5026790;28;20121;-69
2021/06/29 14:05:49;;;;;;;2.22;1.55;;;;;;;;;;5028532;28;20061;-68
2021/06/29 14:08:24;;;;;;;3.10;1.58;;;;;;;;;;5027907;28;20499;-69
2021/06/29 14:11:02;;;;;;;3.20;1.85;;;;;;;;;;5028449;28;20156;-69
2021/06/29 14:13:27;;;;;;;2.65;1.60;;;;;;;;;;5026379;28;20550;-69
2021/06/29 14:15:53;;;;;;;2.60;1.70;;;;;;;;;;5029971;28;20148;-69
2021/06/29 14:18:18;;;;;;;4.15;1.67;;;;;;;;;;5028452;28;20312;-68
2021/06/29 14:20:43;;;;;;;1.30;1.20;;;;;;;;;;5028039;28;20120;-69
2021/06/29 14:23:09;;;;;;;1.87;1.63;;;;;;;;;;5027790;28;20300;-69
2021/06/29 14:25:34;;;;;;;2.63;1.70;;;;;;;;;;5027843;28;20298;-69
2021/06/29 14:27:59;;;;;;;3.00;1.77;;;;;;;;;;5029808;28;20032;-68
2021/06/29 14:30:24;;;;;;;1.87;1.67;;;;;;;;;;5027582;28;20288;-68
2021/06/29 14:32:50;;;;;;;1.90;1.75;;;;;;;;;;5028052;28;20346;-68
2021/06/29 14:35:15;;;;;;;2.08;1.35;;;;;;;;;;5028099;28;20032;-69
2021/06/29 14:37:40;;;;;;;2.30;1.67;;;;;;;;;;5027904;28;20040;-69
2021/06/29 14:40:06;;;;;;;4.07;1.60;;;;;;;;;;5030246;28;20025;-69
2021/06/29 14:42:31;;;;;;;5.25;1.58;;;;;;;;;;5026051;28;20025;-69
2021/06/29 14:44:57;;;;;;;3.25;1.55;;;;;;;;;;5042866;28;20129;-70